Terminal Aerodrome Forecast
Issued by NWS Cleveland, OH

Home | Current Version | Previous Version | Text Only | Print | Product List | Glossary On
Versions: 1 2 3 4 5 6 7 8 9 10 11 12 13 14
198
FTUS41 KCLE 251720
TAFTOL
TAF
KTOL 251720Z 2518/2618 12003KT P6SM SCT250
     FM260900 00000KT 3SM BR SCT250
      TEMPO 2610/2612 2SM BR
     FM261300 VRB03KT P6SM SCT250=

USA.gov is the U.S. government's official web portal to all federal, state and local government web resources and services.